KMTN

Martin State Airport

Baltimore, Maryland, USA

KMTN 191250Z 34009KT 10SM BKN015 22/21 A2999

Observed Flight Rules
Sep-19 @ 12:50 UTC (44 minutes ago)
 
Marginal Visual Flight Rules
Wind Visibility Clouds
340° at 9 knots 10 miles
  • Broken at 1,500' AGL
Temperatures Readings
Current 22°C / 72°F
Dewpoint 21°C / 70°F
Humidity 94%
Altimeter 29.99" Hg
Pressure 1016 hPa
Elevation 7
Observed Flight Rules
Sep-19 @ 12:50 UTC
(44 minutes ago)
 
MVFR
Wind Visibility
340° at 9 knots 10 miles
Clouds
  • Broken at 1,500' AGL
Temperature Dewpoint
22°C / 72°F 21°C / 70°F
Humidity Altimeter Pressure
94% 29.99" Hg 1016 hPa